Roscoe, Illinois
Current Conditions -  °F | °C
As of 12:45 PM on Thursday 23 Oct 2014 (Local Time) from KJVL Reporting Station
Broken Clouds Broken Clouds  
Wind Chill: 57°   Ceiling: 11000
Heat Index: 57°   Visibility: 10mi
Dew Point: 41°   Wind: 12mph
Humidity: 55%   Direction: 170°S
Pressure: 30.08"   Gusts: NA
Location:  42.41°N, 89.01°W
Report Text: KJVL 231745Z 17010KT 10SM BKN110 14/05 A3008
Loading
Personal Weather Stations






























Interactive Weather Map
Tropical Storm Tracking
New forecast layout! Learn more

10-Day Weather Forecast

Advertisements
Track Severe Weather on mobile